Des Moines International Airport Des Moines US
ICAO: KDSM
IATA: DSM
Category: Large
Scheduled Services: Yes

Elevation: 958 ft
TransAlt. 18000 ft.

Airport Communications:
APP/DEP:118.6
ATIS:119.55
CLNC DEL:134.15
GND:121.9
ANG OPS MAINT:138.15
FORT DODGE RDO:122.65
TWR:118.3
UNICOM:122.95

KDSM Zoom In..

If you have problems with the map follow the link
https://www.worldairports.se/pages/airport.php?
ICAO=KDSM

Runways:

(A) RW 05 length 9003 ft width 150 ft
ILS 111.50 / hdg 51

(B) RW 13 length 9002 ft width 150 ft
ILS 111.90 / hdg 129

(C) RW 23 length 9003 ft width 150 ft
---- / hdg 231

(D) RW 31 length 9002 ft width 150 ft
ILS 110.30 / hdg 309

Location; KDSM
Day. 08 / Time. 03.54 Zulu
* Altimeter: 29.95
* Temperature: 04° c. 39.2°f.
* Wind from: 190° Speed 14 kn with Gusts up to 23 kn.
Dewpoint: -03° c.
Visibility: 10 Statute Miles.
Clouds: Scattered 3000 ft.

KDSM 080354Z 19014G23KT 10SM SCT300 04/M03 A2995 RMK AO2 SLP149 T00391028


Wind From 190°
Speed 14 kn.

 
 
jpsmedia worldairports.se 2019   terms of use